Time;durP1;ratioP1;P1;durP2;ratioP2;P2;SDS_P1;SDS_P2;PMS_P1;PMS_P2;Temp;Humidity;BMP_temperature;BMP_pressure;BME280_temperature;BME280_humidity;BME280_pressure;Samples;Min_cycle;Max_cycle;Signal;HPM_P1;HPM_P2
2023/01/30 00:01:37;;;;;;;0.60;0.60;;;;;;;4.29;100.00;99815.91;5053701;28;20254;-61
2023/01/30 00:04:04;;;;;;;0.40;0.40;;;;;;;4.28;100.00;99809.97;5054202;28;20692;-61
2023/01/30 00:06:31;;;;;;;0.70;0.70;;;;;;;4.27;100.00;99807.41;5053838;28;20208;-61
2023/01/30 00:08:58;;;;;;;0.50;0.50;;;;;;;4.26;100.00;99805.75;5054061;28;20205;-61
2023/01/30 00:11:28;;;;;;;0.50;0.50;;;;;;;4.21;100.00;99798.97;5051186;28;20735;-61
2023/01/30 00:13:55;;;;;;;0.87;0.87;;;;;;;4.10;100.00;99793.00;5052161;28;20209;-61
2023/01/30 00:16:22;;;;;;;0.70;0.70;;;;;;;4.02;100.00;99802.31;5053165;28;20193;-61
2023/01/30 00:18:49;;;;;;;0.60;0.60;;;;;;;3.93;100.00;99807.38;5053512;28;20197;-61
2023/01/30 00:21:16;;;;;;;0.60;0.60;;;;;;;3.88;100.00;99801.41;5053767;28;20738;-61
2023/01/30 00:23:43;;;;;;;0.97;0.97;;;;;;;3.85;100.00;99798.03;5053426;28;20250;-60
2023/01/30 00:26:10;;;;;;;0.60;0.60;;;;;;;3.73;100.00;99786.16;5053591;28;20200;-61
2023/01/30 00:28:39;;;;;;;0.60;0.60;;;;;;;3.88;100.00;99803.94;5053314;28;20197;-60
2023/01/30 00:31:07;;;;;;;0.70;0.70;;;;;;;3.82;100.00;99798.88;5053475;28;20212;-61
2023/01/30 00:33:35;;;;;;;0.57;0.57;;;;;;;3.83;100.00;99798.03;5053353;28;20213;-61
2023/01/30 00:36:02;;;;;;;0.70;0.70;;;;;;;3.76;100.00;99798.84;5053111;28;20247;-60
2023/01/30 00:38:29;;;;;;;0.50;0.50;;;;;;;3.69;100.00;99786.97;5053499;28;20208;-61
2023/01/30 00:40:56;;;;;;;0.60;0.60;;;;;;;3.75;100.00;99797.16;5052922;28;20196;-61
2023/01/30 00:48:59;;;;;;;0.40;0.40;;;;;;;3.70;100.00;99789.53;5052193;28;20219;-61
2023/01/30 00:51:25;;;;;;;0.50;0.50;;;;;;;3.74;100.00;99792.94;5051400;28;20216;-61
2023/01/30 00:53:52;;;;;;;0.50;0.50;;;;;;;3.76;100.00;99798.84;5052658;28;20220;-61
2023/01/30 00:56:19;;;;;;;0.60;0.60;;;;;;;3.80;100.00;99795.50;5052806;28;20540;-61
2023/01/30 00:58:45;;;;;;;0.60;0.60;;;;;;;3.81;100.00;99802.25;5052901;28;20231;-61
2023/01/30 01:01:14;;;;;;;0.50;0.50;;;;;;;3.85;100.00;99798.88;5052394;28;20193;-61
2023/01/30 01:03:40;;;;;;;0.53;0.53;;;;;;;3.87;100.00;99797.22;5052371;28;20189;-60
2023/01/30 01:06:07;;;;;;;0.60;0.60;;;;;;;3.92;100.00;99792.97;5051310;28;20200;-61
2023/01/30 01:08:34;;;;;;;0.57;0.57;;;;;;;3.90;100.00;99787.06;5052327;28;20262;-61
2023/01/30 01:11:01;;;;;;;0.50;0.50;;;;;;;3.99;100.00;99791.31;5052601;28;20244;-61
2023/01/30 01:13:28;;;;;;;0.90;0.90;;;;;;;3.99;100.00;99792.16;5052191;28;20270;-61
2023/01/30 01:15:55;;;;;;;0.60;0.60;;;;;;;3.99;100.00;99786.25;5052355;28;20669;-61
2023/01/30 01:18:23;;;;;;;0.60;0.60;;;;;;;4.00;100.00;99777.78;5051212;28;20200;-61
2023/01/30 01:20:50;;;;;;;0.50;0.50;;;;;;;3.98;100.00;99775.25;5052323;28;20203;-61
2023/01/30 01:23:17;;;;;;;0.50;0.50;;;;;;;3.97;100.00;99765.97;5050555;28;20270;-61
2023/01/30 01:25:43;;;;;;;0.60;0.60;;;;;;;3.93;100.00;99766.78;5052502;28;20196;-61
2023/01/30 01:28:10;;;;;;;0.67;0.67;;;;;;;3.94;100.00;99768.47;5052146;28;20205;-61
2023/01/30 01:30:38;;;;;;;0.60;0.60;;;;;;;3.99;100.00;99765.94;5052286;28;20576;-61
2023/01/30 01:33:05;;;;;;;0.47;0.47;;;;;;;4.04;100.00;99775.25;5051929;28;20224;-61
2023/01/30 01:35:33;;;;;;;0.50;0.50;;;;;;;3.96;100.00;99760.88;5052052;28;20200;-61
2023/01/30 01:37:59;;;;;;;0.70;0.70;;;;;;;3.97;100.00;99771.03;5052269;28;20669;-61
2023/01/30 01:43:18;;;;;;;0.50;0.50;;;;;;;3.96;100.00;99764.25;5052044;28;20203;-61
2023/01/30 01:45:48;;;;;;;0.57;0.57;;;;;;;3.84;100.00;99765.91;5052088;28;20618;-61
2023/01/30 01:48:21;;;;;;;0.83;0.83;;;;;;;3.87;100.00;99766.78;5052093;28;20251;-61
2023/01/30 01:50:53;;;;;;;0.60;0.60;;;;;;;3.85;100.00;99768.44;5051023;28;20196;-61
2023/01/30 01:53:23;;;;;;;0.70;0.70;;;;;;;3.82;100.00;99768.44;5051556;28;20704;-61
2023/01/30 01:55:54;;;;;;;0.60;0.60;;;;;;;3.80;100.00;99767.59;5051156;28;20212;-61
2023/01/30 01:58:26;;;;;;;0.60;0.60;;;;;;;3.85;100.00;99773.50;5051617;28;20197;-61
2023/01/30 02:00:54;;;;;;;0.53;0.53;;;;;;;3.88;100.00;99765.91;5051697;28;20204;-61
2023/01/30 02:03:24;;;;;;;0.50;0.50;;;;;;;3.84;100.00;99743.94;5051837;28;20283;-61
2023/01/30 02:05:57;;;;;;;0.70;0.70;;;;;;;3.91;100.00;99752.41;5051436;28;20228;-61
2023/01/30 02:08:29;;;;;;;0.60;0.60;;;;;;;3.92;100.00;99759.16;5051695;28;20579;-61
2023/01/30 02:11:02;;;;;;;0.50;0.50;;;;;;;3.93;100.00;99751.56;5051649;28;20203;-61
2023/01/30 02:13:29;;;;;;;0.50;0.50;;;;;;;3.93;100.00;99751.56;5051646;28;20216;-61
2023/01/30 02:15:58;;;;;;;0.60;0.60;;;;;;;3.93;100.00;99746.50;5051652;28;20196;-61
2023/01/30 02:18:25;;;;;;;0.50;0.50;;;;;;;3.93;100.00;99753.25;5051433;28;20208;-60
2023/01/30 02:21:10;;;;;;;0.43;0.43;;;;;;;3.85;100.00;99735.47;5049632;28;20201;-61
2023/01/30 02:24:17;;;;;;;0.70;0.70;;;;;;;3.97;100.00;99748.19;5051451;28;20207;-61
2023/01/30 02:27:12;;;;;;;0.50;0.50;;;;;;;3.89;100.00;99749.88;5050964;28;20211;-61
2023/01/30 02:30:08;;;;;;;0.60;0.60;;;;;;;3.84;100.00;99741.41;5048022;28;20660;-61
2023/01/30 02:32:45;;;;;;;0.60;0.60;;;;;;;3.86;99.30;99744.78;5051394;28;20600;-61
2023/01/30 02:35:24;;;;;;;0.60;0.60;;;;;;;3.78;97.86;99740.56;5050950;28;20204;-61
2023/01/30 02:38:03;;;;;;;0.50;0.50;;;;;;;3.81;97.98;99745.63;5050818;28;20554;-61
2023/01/30 02:40:44;;;;;;;0.90;0.90;;;;;;;3.79;96.74;99752.38;5051235;28;20203;-61
2023/01/30 02:43:19;;;;;;;0.60;0.60;;;;;;;3.81;97.17;99743.09;5050880;28;20242;-61
2023/01/30 02:45:57;;;;;;;0.50;0.50;;;;;;;3.81;97.97;99743.94;5050761;28;20722;-61
2023/01/30 02:48:29;;;;;;;0.70;0.70;;;;;;;3.87;96.74;99745.63;5051015;28;20834;-61
2023/01/30 02:51:01;;;;;;;0.50;0.50;;;;;;;3.85;96.77;99737.16;5050432;28;20255;-61
2023/01/30 02:53:31;;;;;;;0.50;0.50;;;;;;;3.84;96.50;99746.47;5050884;28;20220;-61
2023/01/30 02:55:58;;;;;;;0.90;0.90;;;;;;;3.81;96.43;99743.94;5050567;28;20254;-61
2023/01/30 02:58:29;;;;;;;0.50;0.50;;;;;;;3.74;96.02;99728.69;5050399;28;20197;-61
2023/01/30 03:01:34;;;;;;;0.50;0.50;;;;;;;3.78;97.01;99736.31;5050608;28;20212;-61
2023/01/30 03:04:30;;;;;;;0.60;0.60;;;;;;;3.74;97.15;99739.69;5032244;28;20228;-61
2023/01/30 03:07:12;;;;;;;0.50;0.50;;;;;;;3.71;97.56;99739.69;5050465;28;20197;-61
2023/01/30 03:09:48;;;;;;;0.60;0.60;;;;;;;3.71;97.59;99732.09;5050926;28;20201;-61
2023/01/30 03:12:22;;;;;;;0.50;0.50;;;;;;;3.70;97.70;99735.44;5050321;28;20200;-61
2023/01/30 03:14:54;;;;;;;0.50;0.50;;;;;;;3.61;97.83;99726.13;5050742;28;20196;-61
2023/01/30 03:17:25;;;;;;;0.50;0.50;;;;;;;3.60;98.64;99716.84;5050440;28;20205;-61
2023/01/30 03:19:55;;;;;;;0.50;0.50;;;;;;;3.66;99.19;99724.44;5050498;28;20656;-60
2023/01/30 03:22:22;;;;;;;1.47;1.47;;;;;;;3.61;99.07;99708.41;5050513;28;20197;-61
2023/01/30 03:24:51;;;;;;;0.50;0.50;;;;;;;3.68;99.26;99716.88;5050642;28;20627;-60
2023/01/30 03:27:19;;;;;;;0.80;0.80;;;;;;;3.64;99.59;99702.47;5050641;28;20212;-61
2023/01/30 03:29:46;;;;;;;0.60;0.60;;;;;;;3.58;99.45;99703.31;5050861;28;20725;-61
2023/01/30 03:32:13;;;;;;;0.50;0.50;;;;;;;3.61;99.15;99707.53;5050138;28;20201;-61
2023/01/30 03:34:40;;;;;;;0.70;0.70;;;;;;;3.66;98.85;99721.06;5050730;28;20216;-61
2023/01/30 03:37:08;;;;;;;0.60;0.60;;;;;;;3.67;99.04;99712.63;5050380;28;20200;-61
2023/01/30 03:39:35;;;;;;;0.50;0.50;;;;;;;3.66;99.23;99710.94;5050549;28;20197;-61
2023/01/30 03:42:02;;;;;;;0.50;0.50;;;;;;;3.58;99.45;99715.16;5050490;28;20197;-61
2023/01/30 03:44:29;;;;;;;0.70;0.70;;;;;;;3.60;99.49;99713.44;5050287;28;20203;-61
2023/01/30 03:46:56;;;;;;;0.50;0.50;;;;;;;3.57;99.22;99710.91;5050189;28;20197;-61
2023/01/30 03:49:23;;;;;;;1.47;1.37;;;;;;;3.55;99.23;99708.38;5050464;28;20201;-61
2023/01/30 03:51:49;;;;;;;0.70;0.70;;;;;;;3.49;98.86;99713.41;5050158;28;20204;-61
2023/01/30 03:54:17;;;;;;;0.50;0.50;;;;;;;3.40;98.32;99717.59;5049803;28;20684;-61
2023/01/30 03:56:44;;;;;;;0.57;0.57;;;;;;;3.39;98.39;99710.88;5050086;28;20193;-61
2023/01/30 03:59:11;;;;;;;0.50;0.50;;;;;;;3.37;98.19;99708.31;5050040;28;20216;-61
2023/01/30 04:01:38;;;;;;;0.63;0.63;;;;;;;3.40;99.07;99717.59;5050586;28;20205;-61
2023/01/30 04:04:05;;;;;;;0.50;0.50;;;;;;;3.40;98.97;99715.91;5050182;28;20699;-60
2023/01/30 04:06:32;;;;;;;0.50;0.50;;;;;;;3.43;98.43;99715.06;5049064;28;20291;-61
2023/01/30 04:08:59;;;;;;;0.60;0.60;;;;;;;3.45;98.31;99705.81;5050214;28;20259;-61
2023/01/30 04:11:27;;;;;;;0.50;0.50;;;;;;;3.34;98.88;99687.19;5049984;28;20200;-61
2023/01/30 04:13:54;;;;;;;0.50;0.50;;;;;;;3.48;98.40;99701.59;5049922;28;20577;-61
2023/01/30 04:16:22;;;;;;;0.53;0.53;;;;;;;3.51;97.66;99700.75;5047804;28;20279;-61
2023/01/30 04:18:49;;;;;;;0.80;0.80;;;;;;;3.51;97.84;99705.81;5052982;28;20568;-61
2023/01/30 04:21:17;;;;;;;2.93;2.73;;;;;;;3.54;97.33;99701.63;5053884;28;20201;-61
2023/01/30 04:23:44;;;;;;;0.50;0.50;;;;;;;3.54;97.58;99698.22;5053635;28;20644;-61
2023/01/30 04:26:12;;;;;;;0.50;0.50;;;;;;;3.53;96.25;99704.13;5053623;28;20197;-61
2023/01/30 04:28:40;;;;;;;0.50;0.50;;;;;;;3.52;95.76;99702.47;5053474;28;20193;-61
2023/01/30 04:31:07;;;;;;;0.70;0.70;;;;;;;3.48;95.76;99700.75;5053790;28;20208;-61
2023/01/30 04:33:35;;;;;;;0.50;0.50;;;;;;;3.49;96.48;99698.19;5053515;28;20680;-61
2023/01/30 04:36:03;;;;;;;0.73;0.73;;;;;;;3.52;95.73;99705.81;5053491;28;20208;-61
2023/01/30 04:38:31;;;;;;;0.50;0.50;;;;;;;3.51;95.04;99699.06;5053688;28;20201;-61
2023/01/30 04:40:59;;;;;;;0.50;0.50;;;;;;;3.45;94.75;99700.75;5052933;28;20201;-61
2023/01/30 04:43:28;;;;;;;0.50;0.50;;;;;;;3.41;95.04;99707.47;5053512;28;20726;-61
2023/01/30 04:45:57;;;;;;;0.60;0.60;;;;;;;3.46;94.70;99707.47;5052773;28;20193;-61
2023/01/30 04:48:25;;;;;;;0.60;0.60;;;;;;;3.44;94.47;99707.50;5053021;28;20200;-61
2023/01/30 04:50:55;;;;;;;0.60;0.60;;;;;;;3.32;94.57;99689.72;5053157;28;20193;-61
2023/01/30 04:53:23;;;;;;;0.50;0.50;;;;;;;3.31;94.88;99694.78;5052934;28;20580;-61
2023/01/30 04:55:50;;;;;;;0.50;0.50;;;;;;;3.35;94.37;99694.78;5052770;28;20193;-61
2023/01/30 04:58:18;;;;;;;0.50;0.50;;;;;;;3.33;94.30;99688.84;5052582;28;20204;-61
2023/01/30 05:00:45;;;;;;;1.27;1.27;;;;;;;3.40;95.13;99704.94;5052712;28;20193;-61
2023/01/30 05:03:13;;;;;;;0.60;0.60;;;;;;;3.41;94.62;99701.56;5052892;28;20197;-61
2023/01/30 05:05:40;;;;;;;0.60;0.60;;;;;;;3.45;94.44;99700.75;5052747;28;20776;-61
2023/01/30 05:08:07;;;;;;;0.60;0.60;;;;;;;3.34;94.45;99677.03;5050253;28;20254;-61
2023/01/30 05:10:34;;;;;;;0.57;0.57;;;;;;;3.49;94.14;99703.28;5052771;28;20669;-60
2023/01/30 05:13:04;;;;;;;0.60;0.60;;;;;;;3.41;94.42;99699.88;5052321;28;20632;-61
2023/01/30 05:15:31;;;;;;;0.60;0.60;;;;;;;3.42;94.17;99700.72;5052844;28;20200;-61
2023/01/30 05:17:58;;;;;;;0.50;0.50;;;;;;;3.45;94.64;99705.81;5052482;28;20204;-61
2023/01/30 05:20:27;;;;;;;0.60;0.60;;;;;;;3.37;94.48;99693.09;5052456;28;20580;-61
2023/01/30 05:22:53;;;;;;;0.77;0.77;;;;;;;3.38;94.42;99704.94;5052520;28;20664;-61
2023/01/30 05:25:20;;;;;;;0.60;0.60;;;;;;;3.35;95.26;99709.16;5052640;28;20247;-61
2023/01/30 05:27:47;;;;;;;0.60;0.60;;;;;;;3.37;95.12;99707.44;5052554;28;20220;-61
2023/01/30 05:30:14;;;;;;;0.57;0.57;;;;;;;3.38;95.42;99704.09;5051355;28;20205;-61
2023/01/30 05:32:41;;;;;;;0.70;0.70;;;;;;;3.37;94.99;99698.16;5052334;28;20644;-61
2023/01/30 05:35:08;;;;;;;0.63;0.63;;;;;;;3.39;95.48;99700.72;5052659;28;20223;-61
2023/01/30 05:37:37;;;;;;;0.63;0.63;;;;;;;3.48;95.11;99710.88;5051360;28;20593;-61
2023/01/30 05:40:06;;;;;;;0.60;0.60;;;;;;;3.37;95.25;99692.25;5052080;28;20259;-61
2023/01/30 05:42:33;;;;;;;0.87;0.87;;;;;;;3.51;95.29;99705.81;5052128;28;20292;-61
2023/01/30 05:45:00;;;;;;;0.50;0.50;;;;;;;3.55;95.50;99717.66;5051959;28;20192;-61
2023/01/30 05:47:26;;;;;;;0.50;0.50;;;;;;;3.53;95.70;99715.13;5052184;28;20672;-61
2023/01/30 05:49:53;;;;;;;0.60;0.60;;;;;;;3.55;95.85;99717.66;5051990;28;20216;-60
2023/01/30 05:52:20;;;;;;;0.50;0.50;;;;;;;3.53;96.71;99715.13;5051985;28;20201;-61
2023/01/30 05:54:48;;;;;;;0.70;0.70;;;;;;;3.56;96.32;99714.28;5051960;28;20216;-61
2023/01/30 05:57:15;;;;;;;0.57;0.57;;;;;;;3.55;96.45;99707.53;5048256;28;20201;-61
2023/01/30 05:59:42;;;;;;;0.80;0.80;;;;;;;3.55;96.40;99708.38;5052026;28;20193;-61
2023/01/30 06:02:08;;;;;;;0.50;0.50;;;;;;;3.56;96.83;99714.28;5051971;28;20633;-61
2023/01/30 06:04:35;;;;;;;0.60;0.60;;;;;;;3.55;96.73;99707.53;5051779;28;20228;-61
2023/01/30 06:07:02;;;;;;;0.50;0.50;;;;;;;3.54;96.82;99716.81;5051461;28;20207;-60
2023/01/30 06:09:29;;;;;;;0.87;0.87;;;;;;;3.49;97.10;99715.13;5051710;28;20197;-61
2023/01/30 06:11:57;;;;;;;0.60;0.60;;;;;;;3.41;96.87;99716.78;5051497;28;20318;-61
2023/01/30 06:14:24;;;;;;;0.63;0.63;;;;;;;3.42;97.29;99719.31;5050340;28;20220;-61
2023/01/30 06:16:51;;;;;;;0.70;0.70;;;;;;;3.37;96.98;99707.44;5051591;28;20664;-61
2023/01/30 06:19:17;;;;;;;0.57;0.57;;;;;;;3.33;96.96;99705.78;5051400;28;20220;-61
2023/01/30 06:21:44;;;;;;;0.50;0.50;;;;;;;3.42;97.28;99726.91;5051494;28;20664;-61
2023/01/30 06:24:11;;;;;;;0.70;0.70;;;;;;;3.46;97.07;99726.06;5051112;28;20235;-61
2023/01/30 06:26:38;;;;;;;0.50;0.50;;;;;;;3.49;96.68;99721.00;5051210;28;20603;-61
2023/01/30 06:29:06;;;;;;;0.60;0.60;;;;;;;3.44;95.95;99725.22;5051160;28;20211;-59
2023/01/30 06:31:32;;;;;;;0.90;0.90;;;;;;;3.51;96.61;99721.88;5051333;28;20235;-61
2023/01/30 06:33:59;;;;;;;0.57;0.57;;;;;;;3.52;96.56;99727.81;5051064;28;20270;-61
2023/01/30 06:36:26;;;;;;;0.60;0.60;;;;;;;3.53;97.07;99729.47;5051123;28;20603;-61
2023/01/30 06:38:53;;;;;;;0.50;0.50;;;;;;;3.50;96.52;99726.94;5051128;28;20203;-61
2023/01/30 06:41:19;;;;;;;0.70;0.70;;;;;;;3.54;96.55;99721.88;5050423;28;20205;-61
2023/01/30 06:43:46;;;;;;;0.60;0.60;;;;;;;3.58;96.41;99730.34;5050986;28;20193;-61
2023/01/30 06:46:14;;;;;;;0.50;0.50;;;;;;;3.64;96.82;99727.81;5050819;28;20204;-60
2023/01/30 06:48:41;;;;;;;0.60;0.60;;;;;;;3.66;96.16;99731.19;5050891;28;20203;-61
2023/01/30 06:51:08;;;;;;;0.60;0.60;;;;;;;3.55;96.27;99718.53;5050640;28;20207;-61
2023/01/30 06:53:35;;;;;;;0.60;0.60;;;;;;;3.67;96.66;99732.91;5050346;28;20197;-61
2023/01/30 06:56:02;;;;;;;0.50;0.50;;;;;;;3.71;96.86;99734.63;5050775;28;20200;-61
2023/01/30 06:58:29;;;;;;;0.50;0.50;;;;;;;3.67;95.81;99731.22;5050499;28;20691;-61
2023/01/30 07:00:55;;;;;;;0.50;0.50;;;;;;;3.71;95.29;99734.63;5050844;28;20196;-61
2023/01/30 07:03:23;;;;;;;0.50;0.50;;;;;;;3.75;95.30;99731.22;5050442;28;20205;-60
2023/01/30 07:05:51;;;;;;;0.60;0.60;;;;;;;3.74;94.88;99732.09;5050610;28;20314;-61
2023/01/30 07:08:17;;;;;;;0.50;0.50;;;;;;;3.75;94.99;99731.22;5050707;28;20196;-61
2023/01/30 07:10:45;;;;;;;0.50;0.50;;;;;;;3.69;95.21;99739.66;5050119;28;20197;-61
2023/01/30 07:13:12;;;;;;;0.60;0.60;;;;;;;3.67;94.68;99728.69;5050513;28;20227;-61
2023/01/30 07:15:39;;;;;;;0.50;0.50;;;;;;;3.63;94.14;99736.28;5049366;28;20274;-61
2023/01/30 07:18:05;;;;;;;0.50;0.50;;;;;;;3.60;94.11;99726.13;5050794;28;20668;-61
2023/01/30 07:20:34;;;;;;;0.57;0.57;;;;;;;3.56;94.23;99737.09;5049606;28;20600;-61
2023/01/30 07:23:01;;;;;;;0.50;0.50;;;;;;;3.61;95.14;99736.28;5050673;28;20386;-61
2023/01/30 07:25:29;;;;;;;0.90;0.90;;;;;;;3.68;95.83;99734.59;5050191;28;20196;-61
2023/01/30 07:27:58;;;;;;;0.50;0.50;;;;;;;3.70;95.73;99736.31;5049549;28;20209;-61
2023/01/30 07:30:26;;;;;;;0.40;0.40;;;;;;;3.66;96.18;99723.59;5049277;28;20201;-61
2023/01/30 07:32:54;;;;;;;0.50;0.50;;;;;;;3.74;96.36;99739.69;5050569;28;20204;-61
2023/01/30 07:35:21;;;;;;;0.50;0.50;;;;;;;3.66;96.43;99721.06;5048448;28;20219;-61
2023/01/30 07:37:50;;;;;;;0.50;0.50;;;;;;;3.80;96.29;99734.63;5049042;28;20250;-61
2023/01/30 07:40:19;;;;;;;0.50;0.50;;;;;;;3.87;96.22;99730.41;5050347;28;20197;-61
2023/01/30 07:42:56;;;;;;;0.50;0.50;;;;;;;3.86;96.42;99739.72;5050065;28;20196;-61
2023/01/30 07:45:22;;;;;;;0.80;0.80;;;;;;;3.77;96.23;99729.56;5050504;28;20197;-61
2023/01/30 07:47:49;;;;;;;0.60;0.60;;;;;;;3.86;96.15;99737.19;5049954;28;20204;-61
2023/01/30 07:50:17;;;;;;;0.50;0.50;;;;;;;3.82;96.38;99738.00;5050354;28;20196;-61
2023/01/30 07:52:43;;;;;;;0.50;0.50;;;;;;;3.82;95.27;99735.47;5050083;28;20696;-61
2023/01/30 07:55:12;;;;;;;0.60;0.60;;;;;;;3.85;95.48;99742.22;5054182;28;20278;-61
2023/01/30 07:57:39;;;;;;;0.50;0.50;;;;;;;3.83;95.59;99734.63;5054246;28;20673;-61
2023/01/30 08:00:09;;;;;;;0.77;0.77;;;;;;;3.88;95.53;99735.47;5053952;28;20200;-61
2023/01/30 08:02:36;;;;;;;0.70;0.70;;;;;;;3.84;94.36;99716.06;5053955;28;20201;-61
2023/01/30 08:05:03;;;;;;;0.50;0.50;;;;;;;3.75;94.17;99710.94;5053408;28;20232;-61
2023/01/30 08:07:30;;;;;;;0.57;0.57;;;;;;;3.84;94.08;99727.88;5054075;28;20200;-61
2023/01/30 08:09:57;;;;;;;0.60;0.60;;;;;;;3.90;94.98;99726.22;5053961;28;20322;-61
2023/01/30 08:12:25;;;;;;;0.60;0.60;;;;;;;3.85;94.07;99732.94;5051621;28;20646;-61
2023/01/30 08:14:51;;;;;;;0.50;0.50;;;;;;;3.86;94.51;99732.09;5053626;28;20212;-61
2023/01/30 08:17:18;;;;;;;0.57;0.57;;;;;;;3.91;94.90;99727.06;5053809;28;20208;-61
2023/01/30 08:19:45;;;;;;;0.70;0.70;;;;;;;3.92;95.71;99728.72;5051207;28;20193;-61
2023/01/30 08:22:12;;;;;;;0.50;0.50;;;;;;;3.92;95.43;99721.97;5053672;28;20665;-61
2023/01/30 08:24:39;;;;;;;5.53;1.23;;;;;;;3.90;95.22;99713.53;5053996;28;20550;-61
2023/01/30 08:27:06;;;;;;;0.57;0.57;;;;;;;4.01;95.21;99724.50;5053406;28;20270;-61
2023/01/30 08:29:34;;;;;;;0.60;0.60;;;;;;;4.04;93.94;99719.44;5053676;28;20577;-61
2023/01/30 08:32:01;;;;;;;0.90;0.90;;;;;;;4.07;93.63;99716.09;5052591;28;20205;-60
2023/01/30 08:34:28;;;;;;;0.50;0.50;;;;;;;3.99;93.80;99693.25;5053376;28;20706;-61
2023/01/30 08:36:54;;;;;;;0.50;0.50;;;;;;;4.10;93.99;99711.84;5053649;28;20201;-61
2023/01/30 08:39:21;;;;;;;0.80;0.80;;;;;;;4.10;94.78;99708.47;5052787;28;20205;-61
2023/01/30 08:41:48;;;;;;;0.50;0.50;;;;;;;4.13;94.33;99714.41;5052535;28;20200;-61
2023/01/30 08:44:15;;;;;;;0.60;0.60;;;;;;;4.06;94.72;99702.56;5053151;28;20199;-61
2023/01/30 08:46:43;;;;;;;0.50;0.50;;;;;;;4.17;94.65;99711.00;5051461;28;20688;-61
2023/01/30 08:49:10;;;;;;;0.57;0.57;;;;;;;4.23;94.03;99718.59;5053234;28;20216;-61
2023/01/30 08:51:38;;;;;;;0.50;0.50;;;;;;;4.24;93.10;99710.16;5051889;28;20696;-61
2023/01/30 08:54:06;;;;;;;0.60;0.60;;;;;;;4.27;92.42;99713.53;5052932;28;20204;-60
2023/01/30 08:56:33;;;;;;;0.80;0.80;;;;;;;4.29;92.16;99699.16;5052900;28;20197;-61
2023/01/30 08:58:59;;;;;;;0.70;0.70;;;;;;;4.31;91.80;99702.53;5052814;28;20197;-61
2023/01/30 09:01:26;;;;;;;0.50;0.50;;;;;;;4.35;92.09;99699.16;5052532;28;20204;-61
2023/01/30 09:03:54;;;;;;;0.53;0.53;;;;;;;4.39;91.15;99698.31;5052461;28;20200;-61
2023/01/30 09:06:21;;;;;;;0.80;0.80;;;;;;;4.40;90.55;99694.91;5052538;28;20561;-61
2023/01/30 09:08:48;;;;;;;0.60;0.60;;;;;;;4.50;91.30;99694.06;5052531;28;20205;-61
2023/01/30 09:11:15;;;;;;;0.50;0.50;;;;;;;4.53;90.70;99691.53;5052300;28;20205;-60
2023/01/30 09:13:42;;;;;;;0.50;0.50;;;;;;;4.55;91.04;99687.31;5052750;28;20888;-61
2023/01/30 09:16:10;;;;;;;0.40;0.40;;;;;;;4.62;90.75;99691.53;5050124;28;20216;-61
2023/01/30 09:18:39;;;;;;;0.77;0.77;;;;;;;4.60;91.62;99680.50;5052632;28;20204;-61
2023/01/30 09:21:09;;;;;;;1.57;1.50;;;;;;;4.59;92.34;99663.59;5050015;28;20197;-61
2023/01/30 09:23:36;;;;;;;0.50;0.50;;;;;;;4.70;90.72;99677.13;5052330;28;20688;-61
2023/01/30 09:26:04;;;;;;;0.50;0.50;;;;;;;4.82;90.32;99682.16;5052407;28;20193;-61
2023/01/30 09:28:31;;;;;;;0.90;0.90;;;;;;;4.86;90.39;99668.59;5051995;28;20204;-61
2023/01/30 09:30:58;;;;;;;0.67;0.67;;;;;;;4.92;90.61;99666.03;5052484;28;20208;-61
2023/01/30 09:33:25;;;;;;;0.50;0.50;;;;;;;4.96;89.60;99665.19;5052273;28;20569;-61
2023/01/30 09:35:52;;;;;;;0.50;0.50;;;;;;;5.04;89.33;99666.00;5052034;28;20212;-61
2023/01/30 09:38:21;;;;;;;0.60;0.60;;;;;;;5.06;88.39;99655.84;5052436;28;20197;-61
2023/01/30 09:41:03;;;;;;;0.70;0.70;;;;;;;5.09;87.92;99655.81;5052093;28;20644;-61
2023/01/30 09:43:44;;;;;;;0.50;0.50;;;;;;;5.09;88.32;99646.50;5051953;28;20251;-60
2023/01/30 09:46:29;;;;;;;0.60;0.60;;;;;;;5.05;87.97;99644.81;5051991;28;20193;-61
2023/01/30 09:49:04;;;;;;;0.57;0.57;;;;;;;4.97;87.33;99644.03;5049593;28;20204;-61
2023/01/30 09:51:43;;;;;;;1.00;1.00;;;;;;;4.99;87.60;99633.84;5051727;28;20258;-61
2023/01/30 09:54:20;;;;;;;0.50;0.50;;;;;;;4.99;88.19;99629.63;5052109;28;20736;-61
2023/01/30 09:56:54;;;;;;;0.50;0.50;;;;;;;5.04;88.09;99621.97;5051681;28;20212;-61
2023/01/30 09:59:28;;;;;;;0.50;0.50;;;;;;;5.04;87.14;99630.41;5051829;28;20709;-61
2023/01/30 10:02:01;;;;;;;0.50;0.50;;;;;;;5.01;86.65;99622.81;5051538;28;20669;-61
2023/01/30 10:04:33;;;;;;;0.77;0.77;;;;;;;5.03;86.39;99610.97;5051585;28;20250;-61
2023/01/30 10:07:13;;;;;;;0.53;0.53;;;;;;;5.03;85.62;99607.56;5051849;28;20201;-61
2023/01/30 10:09:54;;;;;;;0.50;0.50;;;;;;;5.07;85.92;99607.53;5049816;28;20197;-61
2023/01/30 10:12:33;;;;;;;0.57;0.57;;;;;;;4.97;85.50;99580.50;5051630;28;20207;-61
2023/01/30 10:15:18;;;;;;;0.63;0.63;;;;;;;5.09;85.22;99588.06;5050656;28;20220;-61
2023/01/30 10:18:00;;;;;;;0.50;0.50;;;;;;;5.11;84.84;99582.97;5051163;28;20621;-61
2023/01/30 10:20:36;;;;;;;0.40;0.40;;;;;;;5.05;87.11;99573.69;5051111;28;20200;-61
2023/01/30 10:23:35;;;;;;;0.43;0.43;;;;;;;4.94;89.58;99565.28;5051440;28;20669;-56
2023/01/30 10:26:09;;;;;;;0.50;0.50;;;;;;;4.88;89.75;99560.22;5051068;28;20216;-56
2023/01/30 10:28:40;;;;;;;0.70;0.70;;;;;;;4.83;89.59;99561.94;5051675;28;20209;-56
2023/01/30 10:31:13;;;;;;;0.53;0.53;;;;;;;4.85;89.79;99554.34;5051298;28;20250;-56
2023/01/30 10:33:45;;;;;;;0.60;0.60;;;;;;;4.86;90.64;99554.31;5051337;28;20204;-56
2023/01/30 10:36:17;;;;;;;0.67;0.67;;;;;;;4.91;90.41;99549.22;5051488;28;20565;-56
2023/01/30 10:38:48;;;;;;;0.80;0.80;;;;;;;4.89;89.67;99543.28;5049129;28;20254;-56
2023/01/30 10:41:24;;;;;;;0.50;0.50;;;;;;;4.95;89.74;99535.63;5051398;28;20730;-56
2023/01/30 10:43:59;;;;;;;0.60;0.60;;;;;;;4.98;89.64;99536.47;5049387;28;20207;-56
2023/01/30 10:46:44;;;;;;;0.80;0.80;;;;;;;4.89;89.89;99531.44;5048979;28;20197;-56
2023/01/30 10:49:15;;;;;;;2.23;2.13;;;;;;;4.83;89.63;99518.78;5050532;28;20604;-55
2023/01/30 10:51:51;;;;;;;0.70;0.70;;;;;;;4.81;89.49;99505.25;5050943;28;20286;-56
2023/01/30 10:54:24;;;;;;;0.53;0.53;;;;;;;4.92;90.24;99500.94;5051269;28;20648;-56
2023/01/30 10:56:57;;;;;;;0.60;0.60;;;;;;;5.00;89.94;99499.22;5050978;28;20596;-56
2023/01/30 10:59:33;;;;;;;0.50;0.50;;;;;;;4.99;90.34;99482.25;5051037;28;20683;-56
2023/01/30 11:02:10;;;;;;;0.50;0.50;;;;;;;5.10;91.01;99485.59;5049371;28;20630;-56
2023/01/30 11:04:45;;;;;;;0.50;0.50;;;;;;;5.16;85.25;99485.53;5050627;28;20227;-56
2023/01/30 11:07:13;;;;;;;0.60;0.60;;;;;;;5.23;88.11;99471.91;5050583;28;20208;-56
2023/01/30 11:09:42;;;;;;;0.50;0.50;;;;;;;5.26;89.50;99469.38;5050939;28;20786;-56
2023/01/30 11:12:10;;;;;;;0.50;0.50;;;;;;;5.33;89.30;99464.25;5050516;28;20193;-56
2023/01/30 11:14:55;;;;;;;0.60;0.60;;;;;;;5.22;86.64;99449.91;5050767;28;20204;-56
2023/01/30 11:17:29;;;;;;;0.43;0.43;;;;;;;5.42;82.67;99464.16;5050187;28;20205;-56
2023/01/30 11:19:57;;;;;;;0.80;0.80;;;;;;;5.45;79.95;99464.97;5048354;28;20204;-56
2023/01/30 11:22:26;;;;;;;0.40;0.40;;;;;;;5.50;78.39;99453.06;5050769;28;20703;-56
2023/01/30 11:25:02;;;;;;;0.90;0.90;;;;;;;5.51;77.80;99454.75;5050760;28;20228;-56
2023/01/30 11:27:32;;;;;;;0.60;0.60;;;;;;;5.44;77.25;99450.56;5051758;28;20656;-56
2023/01/30 11:30:14;;;;;;;0.40;0.40;;;;;;;5.50;77.74;99444.59;5054467;28;20196;-56
2023/01/30 11:32:43;;;;;;;0.40;0.40;;;;;;;5.54;76.88;99436.94;5054975;28;20211;-56
2023/01/30 11:35:24;;;;;;;1.20;1.20;;;;;;;5.48;75.55;99438.69;5054585;28;20250;-57
2023/01/30 11:37:52;;;;;;;0.50;0.50;;;;;;;5.50;76.08;99439.50;5053157;28;20273;-56
2023/01/30 11:40:29;;;;;;;0.50;0.50;;;;;;;5.57;75.51;99426.72;5054536;28;20228;-57
2023/01/30 11:43:04;;;;;;;0.50;0.50;;;;;;;5.63;75.12;99426.66;5054645;28;20197;-56
2023/01/30 11:45:36;;;;;;;0.50;0.50;;;;;;;5.54;75.42;99420.81;5053451;28;20257;-56
2023/01/30 11:48:07;;;;;;;0.50;0.50;;;;;;;5.58;76.11;99413.16;5054600;28;20691;-56
2023/01/30 11:50:40;;;;;;;0.57;0.57;;;;;;;5.58;75.87;99392.81;5053504;28;20200;-56
2023/01/30 11:53:23;;;;;;;0.40;0.40;;;;;;;5.64;75.38;99402.94;5054366;28;20204;-56
2023/01/30 11:55:51;;;;;;;0.50;0.50;;;;;;;5.58;74.12;99402.16;5054230;28;20223;-56
2023/01/30 11:58:19;;;;;;;0.50;0.50;;;;;;;5.62;75.22;99399.53;5053459;28;20258;-56
2023/01/30 12:00:51;;;;;;;0.50;0.50;;;;;;;5.66;76.15;99380.00;5054212;28;20205;-56